KNBG/NBG METAR and TAF weather

Enter ICAO airport designator
Station Type Date Time Source
KNBG METAR 2019/12/16 05:55 UTC NOAA

KNBG 160555Z AUTO 16007KT 9SM CLR 18/18 A2997 RMK AO2 SLP147 T01780178 10194 20172 402440106 58007 $


Station Type Date Time Source
KNBG Decoded METAR 2019/12/16 05:55 UTC NOAA

NEW ORLEANS NAVAL AIR STN, LA, United States (KNBG) 29-50N 90-01W
Dec 16, 2019 - 12:55 AM EST / 2019.12.16 0555 UTC
Wind: from the SSE (160 degrees) at 8 MPH (7 KT):0
Visibility: 9 mile(s):0
Sky conditions: clear
Temperature: 64.0 F (17.8 C)
Dew Point: 64.0 F (17.8 C)
Relative Humidity: 100%
Pressure (altimeter): 29.97 in. Hg (1014 hPa)
Pressure tendency: 0.02 inches (0.7 hPa) lower than three hours ago
ob: KNBG 160555Z AUTO 16007KT 9SM CLR 18/18 A2997 RMK AO2 SLP147 T01780178 10194 20172 402440106 58007
cycle: 6

Station Type Date Time Source
KNBG TAF 2019/12/15 23:58 UTC NOAA

TAF KNBG 1523/1623 18010KT 9999 FEW025 QNH2995INS
BECMG 1606/1608 17006KT 9999 BKN018 QNNH3007INS
TEMPO 1611/1615 1600 BR BKN006
BECMG 1616/1618 17015G22KT 9999 SCT020 QNH3012INS AUTOMATED SENSOR METWATCH 1523 TIL 1611 T17/1611Z T23/1621Z FN20038

Example: see airport list